sensor_id;sensor_type;location;lat;lon;timestamp;P1;durP1;ratioP1;P2;durP2;ratioP2
48945;SDS011;34999;50.940;3.998;2022-08-23T00:02:22;13.37;;;6.73;;
48945;SDS011;34999;50.940;3.998;2022-08-23T00:04:53;14.20;;;7.43;;
48945;SDS011;34999;50.940;3.998;2022-08-23T00:07:34;16.10;;;7.17;;
48945;SDS011;34999;50.940;3.998;2022-08-23T00:10:05;10.93;;;6.40;;
48945;SDS011;34999;50.940;3.998;2022-08-23T00:12:35;10.13;;;6.97;;
48945;SDS011;34999;50.940;3.998;2022-08-23T00:15:04;13.67;;;6.63;;
48945;SDS011;34999;50.940;3.998;2022-08-23T00:17:35;18.00;;;7.17;;
48945;SDS011;34999;50.940;3.998;2022-08-23T00:20:05;12.40;;;7.10;;
48945;SDS011;34999;50.940;3.998;2022-08-23T00:22:36;10.03;;;6.67;;
48945;SDS011;34999;50.940;3.998;2022-08-23T00:25:07;10.93;;;6.80;;
48945;SDS011;34999;50.940;3.998;2022-08-23T00:27:37;14.30;;;7.10;;
48945;SDS011;34999;50.940;3.998;2022-08-23T00:30:07;12.10;;;6.33;;
48945;SDS011;34999;50.940;3.998;2022-08-23T00:32:38;10.13;;;6.47;;
48945;SDS011;34999;50.940;3.998;2022-08-23T00:35:09;10.73;;;6.13;;
48945;SDS011;34999;50.940;3.998;2022-08-23T00:37:53;11.60;;;6.53;;
48945;SDS011;34999;50.940;3.998;2022-08-23T00:40:43;9.43;;;6.10;;
48945;SDS011;34999;50.940;3.998;2022-08-23T00:43:25;10.93;;;6.33;;
48945;SDS011;34999;50.940;3.998;2022-08-23T00:46:16;11.70;;;6.53;;
48945;SDS011;34999;50.940;3.998;2022-08-23T00:49:12;15.27;;;7.00;;
48945;SDS011;34999;50.940;3.998;2022-08-23T00:51:45;12.73;;;6.80;;
48945;SDS011;34999;50.940;3.998;2022-08-23T00:54:19;15.87;;;6.93;;
48945;SDS011;34999;50.940;3.998;2022-08-23T00:56:50;13.67;;;6.63;;
48945;SDS011;34999;50.940;3.998;2022-08-23T00:59:18;10.43;;;6.50;;
48945;SDS011;34999;50.940;3.998;2022-08-23T01:04:57;14.40;;;7.93;;
48945;SDS011;34999;50.940;3.998;2022-08-23T01:11:01;18.50;;;8.40;;
48945;SDS011;34999;50.940;3.998;2022-08-23T01:13:42;12.13;;;7.33;;
48945;SDS011;34999;50.940;3.998;2022-08-23T01:16:20;11.07;;;6.70;;
48945;SDS011;34999;50.940;3.998;2022-08-23T01:18:54;11.40;;;7.57;;
48945;SDS011;34999;50.940;3.998;2022-08-23T01:21:24;13.60;;;7.50;;
48945;SDS011;34999;50.940;3.998;2022-08-23T01:24:03;14.00;;;8.10;;
48945;SDS011;34999;50.940;3.998;2022-08-23T01:26:32;10.50;;;7.53;;
48945;SDS011;34999;50.940;3.998;2022-08-23T01:29:01;13.03;;;7.83;;
48945;SDS011;34999;50.940;3.998;2022-08-23T01:31:32;16.20;;;7.90;;
48945;SDS011;34999;50.940;3.998;2022-08-23T01:34:02;13.67;;;8.80;;
48945;SDS011;34999;50.940;3.998;2022-08-23T01:36:33;14.37;;;9.20;;
48945;SDS011;34999;50.940;3.998;2022-08-23T01:39:04;13.63;;;8.80;;
48945;SDS011;34999;50.940;3.998;2022-08-23T01:41:33;15.07;;;9.17;;
48945;SDS011;34999;50.940;3.998;2022-08-23T01:44:04;14.60;;;9.03;;
48945;SDS011;34999;50.940;3.998;2022-08-23T01:46:32;17.77;;;8.77;;
48945;SDS011;34999;50.940;3.998;2022-08-23T01:49:03;13.60;;;8.67;;
48945;SDS011;34999;50.940;3.998;2022-08-23T01:51:34;12.97;;;8.83;;
48945;SDS011;34999;50.940;3.998;2022-08-23T01:54:04;17.77;;;8.97;;
48945;SDS011;34999;50.940;3.998;2022-08-23T01:56:33;17.67;;;9.63;;
48945;SDS011;34999;50.940;3.998;2022-08-23T01:59:05;16.00;;;9.13;;
48945;SDS011;34999;50.940;3.998;2022-08-23T02:01:37;14.50;;;9.50;;
48945;SDS011;34999;50.940;3.998;2022-08-23T02:04:06;16.43;;;9.57;;
48945;SDS011;34999;50.940;3.998;2022-08-23T02:06:37;16.37;;;9.13;;
48945;SDS011;34999;50.940;3.998;2022-08-23T02:09:07;15.20;;;9.20;;
48945;SDS011;34999;50.940;3.998;2022-08-23T02:11:43;18.60;;;8.27;;
48945;SDS011;34999;50.940;3.998;2022-08-23T02:14:14;18.33;;;8.83;;
48945;SDS011;34999;50.940;3.998;2022-08-23T02:16:46;13.67;;;8.43;;
48945;SDS011;34999;50.940;3.998;2022-08-23T02:19:29;9.80;;;7.77;;
48945;SDS011;34999;50.940;3.998;2022-08-23T02:21:58;15.43;;;8.50;;
48945;SDS011;34999;50.940;3.998;2022-08-23T02:24:28;14.17;;;8.73;;
48945;SDS011;34999;50.940;3.998;2022-08-23T02:26:59;15.77;;;9.27;;
48945;SDS011;34999;50.940;3.998;2022-08-23T02:29:30;13.30;;;8.77;;
48945;SDS011;34999;50.940;3.998;2022-08-23T02:32:04;17.40;;;9.17;;
48945;SDS011;34999;50.940;3.998;2022-08-23T02:34:35;19.43;;;9.33;;
48945;SDS011;34999;50.940;3.998;2022-08-23T02:37:04;16.47;;;9.10;;
48945;SDS011;34999;50.940;3.998;2022-08-23T02:39:39;13.33;;;8.90;;
48945;SDS011;34999;50.940;3.998;2022-08-23T02:42:08;13.17;;;8.97;;
48945;SDS011;34999;50.940;3.998;2022-08-23T02:48:53;15.33;;;8.27;;
48945;SDS011;34999;50.940;3.998;2022-08-23T02:51:22;12.60;;;8.37;;
48945;SDS011;34999;50.940;3.998;2022-08-23T02:53:50;13.57;;;7.57;;
48945;SDS011;34999;50.940;3.998;2022-08-23T02:56:20;12.50;;;7.83;;
48945;SDS011;34999;50.940;3.998;2022-08-23T02:58:49;13.73;;;7.80;;
48945;SDS011;34999;50.940;3.998;2022-08-23T03:01:21;11.83;;;7.77;;
48945;SDS011;34999;50.940;3.998;2022-08-23T03:03:51;14.83;;;8.63;;
48945;SDS011;34999;50.940;3.998;2022-08-23T03:06:20;15.93;;;8.30;;
48945;SDS011;34999;50.940;3.998;2022-08-23T03:08:52;11.77;;;8.37;;
48945;SDS011;34999;50.940;3.998;2022-08-23T03:11:22;14.77;;;8.77;;
48945;SDS011;34999;50.940;3.998;2022-08-23T03:13:54;16.97;;;9.07;;
48945;SDS011;34999;50.940;3.998;2022-08-23T03:16:25;12.77;;;9.10;;
48945;SDS011;34999;50.940;3.998;2022-08-23T03:18:54;17.13;;;9.90;;
48945;SDS011;34999;50.940;3.998;2022-08-23T03:21:22;12.63;;;9.13;;
48945;SDS011;34999;50.940;3.998;2022-08-23T03:23:51;14.57;;;9.87;;
48945;SDS011;34999;50.940;3.998;2022-08-23T03:26:19;14.97;;;10.57;;
48945;SDS011;34999;50.940;3.998;2022-08-23T03:28:49;18.93;;;11.23;;
48945;SDS011;34999;50.940;3.998;2022-08-23T03:31:19;16.10;;;10.93;;
48945;SDS011;34999;50.940;3.998;2022-08-23T03:33:47;15.47;;;11.03;;
48945;SDS011;34999;50.940;3.998;2022-08-23T03:36:16;23.10;;;11.57;;
48945;SDS011;34999;50.940;3.998;2022-08-23T03:38:53;16.40;;;10.67;;
48945;SDS011;34999;50.940;3.998;2022-08-23T03:41:22;16.10;;;10.87;;
48945;SDS011;34999;50.940;3.998;2022-08-23T03:43:52;15.33;;;10.73;;
48945;SDS011;34999;50.940;3.998;2022-08-23T03:46:23;19.70;;;10.83;;
48945;SDS011;34999;50.940;3.998;2022-08-23T03:48:56;16.47;;;10.43;;
48945;SDS011;34999;50.940;3.998;2022-08-23T03:51:27;19.87;;;11.07;;
48945;SDS011;34999;50.940;3.998;2022-08-23T03:53:58;22.53;;;11.67;;
48945;SDS011;34999;50.940;3.998;2022-08-23T03:56:27;21.33;;;12.60;;
48945;SDS011;34999;50.940;3.998;2022-08-23T03:58:59;16.30;;;11.67;;
48945;SDS011;34999;50.940;3.998;2022-08-23T04:01:29;18.30;;;12.13;;
48945;SDS011;34999;50.940;3.998;2022-08-23T04:04:08;23.30;;;12.97;;
48945;SDS011;34999;50.940;3.998;2022-08-23T04:06:37;22.27;;;12.93;;
48945;SDS011;34999;50.940;3.998;2022-08-23T04:09:08;25.23;;;11.97;;
48945;SDS011;34999;50.940;3.998;2022-08-23T04:11:37;21.07;;;11.60;;
48945;SDS011;34999;50.940;3.998;2022-08-23T04:14:08;22.57;;;12.57;;
48945;SDS011;34999;50.940;3.998;2022-08-23T04:16:39;16.07;;;11.80;;
48945;SDS011;34999;50.940;3.998;2022-08-23T04:19:08;19.13;;;11.97;;
48945;SDS011;34999;50.940;3.998;2022-08-23T04:21:40;20.47;;;12.70;;
48945;SDS011;34999;50.940;3.998;2022-08-23T04:24:13;23.30;;;13.13;;
48945;SDS011;34999;50.940;3.998;2022-08-23T04:26:45;21.73;;;12.47;;
48945;SDS011;34999;50.940;3.998;2022-08-23T04:29:16;23.07;;;12.90;;
48945;SDS011;34999;50.940;3.998;2022-08-23T04:32:00;22.37;;;12.43;;
48945;SDS011;34999;50.940;3.998;2022-08-23T04:34:31;21.57;;;12.87;;
48945;SDS011;34999;50.940;3.998;2022-08-23T04:37:00;21.93;;;12.40;;
48945;SDS011;34999;50.940;3.998;2022-08-23T04:39:34;20.83;;;12.10;;
48945;SDS011;34999;50.940;3.998;2022-08-23T04:42:19;13.33;;;10.80;;
48945;SDS011;34999;50.940;3.998;2022-08-23T04:44:50;23.77;;;12.77;;
48945;SDS011;34999;50.940;3.998;2022-08-23T04:47:18;22.87;;;11.63;;
48945;SDS011;34999;50.940;3.998;2022-08-23T04:49:47;19.53;;;11.83;;
48945;SDS011;34999;50.940;3.998;2022-08-23T04:52:15;21.10;;;11.40;;
48945;SDS011;34999;50.940;3.998;2022-08-23T04:54:45;25.63;;;12.40;;
48945;SDS011;34999;50.940;3.998;2022-08-23T04:57:13;27.40;;;12.90;;
48945;SDS011;34999;50.940;3.998;2022-08-23T04:59:42;19.07;;;12.23;;
48945;SDS011;34999;50.940;3.998;2022-08-23T05:02:12;21.37;;;11.80;;
48945;SDS011;34999;50.940;3.998;2022-08-23T05:04:40;20.60;;;12.80;;
48945;SDS011;34999;50.940;3.998;2022-08-23T05:07:08;21.13;;;13.13;;
48945;SDS011;34999;50.940;3.998;2022-08-23T05:09:37;20.67;;;12.50;;
48945;SDS011;34999;50.940;3.998;2022-08-23T05:12:05;22.87;;;12.20;;
48945;SDS011;34999;50.940;3.998;2022-08-23T05:14:34;22.90;;;12.37;;
48945;SDS011;34999;50.940;3.998;2022-08-23T05:17:02;24.10;;;13.60;;
48945;SDS011;34999;50.940;3.998;2022-08-23T05:19:32;23.27;;;12.50;;
48945;SDS011;34999;50.940;3.998;2022-08-23T05:22:04;18.03;;;12.03;;
48945;SDS011;34999;50.940;3.998;2022-08-23T05:24:37;20.73;;;12.50;;
48945;SDS011;34999;50.940;3.998;2022-08-23T05:27:07;24.83;;;13.27;;
48945;SDS011;34999;50.940;3.998;2022-08-23T05:29:39;25.90;;;13.17;;
48945;SDS011;34999;50.940;3.998;2022-08-23T05:32:07;26.17;;;13.23;;
48945;SDS011;34999;50.940;3.998;2022-08-23T05:34:37;33.50;;;13.60;;
48945;SDS011;34999;50.940;3.998;2022-08-23T05:37:06;20.17;;;13.20;;
48945;SDS011;34999;50.940;3.998;2022-08-23T05:39:34;28.17;;;13.57;;
48945;SDS011;34999;50.940;3.998;2022-08-23T05:42:03;25.80;;;13.23;;
48945;SDS011;34999;50.940;3.998;2022-08-23T05:44:31;22.10;;;12.93;;
48945;SDS011;34999;50.940;3.998;2022-08-23T05:47:02;22.10;;;13.40;;
48945;SDS011;34999;50.940;3.998;2022-08-23T05:49:38;25.57;;;12.73;;
48945;SDS011;34999;50.940;3.998;2022-08-23T05:52:08;23.40;;;12.73;;
48945;SDS011;34999;50.940;3.998;2022-08-23T05:54:38;25.00;;;12.03;;
48945;SDS011;34999;50.940;3.998;2022-08-23T05:57:07;24.77;;;12.23;;
48945;SDS011;34999;50.940;3.998;2022-08-23T05:59:37;23.13;;;11.33;;
48945;SDS011;34999;50.940;3.998;2022-08-23T06:02:07;24.93;;;11.67;;
48945;SDS011;34999;50.940;3.998;2022-08-23T06:04:36;22.20;;;11.73;;
48945;SDS011;34999;50.940;3.998;2022-08-23T06:07:05;20.43;;;11.63;;
48945;SDS011;34999;50.940;3.998;2022-08-23T06:09:35;18.17;;;11.57;;
48945;SDS011;34999;50.940;3.998;2022-08-23T06:12:05;23.03;;;12.27;;
48945;SDS011;34999;50.940;3.998;2022-08-23T06:14:33;24.17;;;12.23;;
48945;SDS011;34999;50.940;3.998;2022-08-23T06:17:02;19.80;;;11.90;;
48945;SDS011;34999;50.940;3.998;2022-08-23T06:19:31;23.10;;;10.97;;
48945;SDS011;34999;50.940;3.998;2022-08-23T06:21:59;20.80;;;11.47;;
48945;SDS011;34999;50.940;3.998;2022-08-23T06:24:29;19.67;;;10.40;;
48945;SDS011;34999;50.940;3.998;2022-08-23T06:26:59;19.33;;;10.17;;
48945;SDS011;34999;50.940;3.998;2022-08-23T06:29:27;20.73;;;10.60;;
48945;SDS011;34999;50.940;3.998;2022-08-23T06:31:55;16.87;;;10.07;;
48945;SDS011;34999;50.940;3.998;2022-08-23T06:34:25;16.77;;;10.33;;
48945;SDS011;34999;50.940;3.998;2022-08-23T06:36:55;16.43;;;10.17;;
48945;SDS011;34999;50.940;3.998;2022-08-23T06:39:27;19.00;;;9.50;;
48945;SDS011;34999;50.940;3.998;2022-08-23T06:42:04;18.47;;;9.33;;
48945;SDS011;34999;50.940;3.998;2022-08-23T06:44:54;17.53;;;8.57;;
48945;SDS011;34999;50.940;3.998;2022-08-23T06:47:22;14.83;;;8.23;;
48945;SDS011;34999;50.940;3.998;2022-08-23T06:49:51;15.60;;;7.27;;
48945;SDS011;34999;50.940;3.998;2022-08-23T06:52:24;14.33;;;6.97;;
48945;SDS011;34999;50.940;3.998;2022-08-23T06:54:55;14.90;;;6.97;;
48945;SDS011;34999;50.940;3.998;2022-08-23T06:57:23;13.67;;;7.27;;
48945;SDS011;34999;50.940;3.998;2022-08-23T06:59:52;12.00;;;7.27;;
48945;SDS011;34999;50.940;3.998;2022-08-23T07:02:20;14.50;;;6.83;;
48945;SDS011;34999;50.940;3.998;2022-08-23T07:04:49;12.40;;;6.43;;
48945;SDS011;34999;50.940;3.998;2022-08-23T07:07:19;9.53;;;6.00;;
48945;SDS011;34999;50.940;3.998;2022-08-23T07:09:48;11.03;;;6.27;;
48945;SDS011;34999;50.940;3.998;2022-08-23T07:12:17;9.33;;;5.73;;
48945;SDS011;34999;50.940;3.998;2022-08-23T07:14:47;9.67;;;6.30;;
48945;SDS011;34999;50.940;3.998;2022-08-23T07:17:15;11.00;;;5.97;;
48945;SDS011;34999;50.940;3.998;2022-08-23T07:19:44;11.93;;;5.63;;
48945;SDS011;34999;50.940;3.998;2022-08-23T07:22:13;11.00;;;5.50;;
48945;SDS011;34999;50.940;3.998;2022-08-23T07:24:41;7.30;;;5.43;;
48945;SDS011;34999;50.940;3.998;2022-08-23T07:27:10;12.63;;;5.40;;
48945;SDS011;34999;50.940;3.998;2022-08-23T07:29:39;11.90;;;5.30;;
48945;SDS011;34999;50.940;3.998;2022-08-23T07:32:08;10.63;;;5.23;;
48945;SDS011;34999;50.940;3.998;2022-08-23T07:34:36;7.97;;;5.17;;
48945;SDS011;34999;50.940;3.998;2022-08-23T07:37:05;8.30;;;4.90;;
48945;SDS011;34999;50.940;3.998;2022-08-23T07:39:41;10.67;;;5.33;;
48945;SDS011;34999;50.940;3.998;2022-08-23T07:42:10;9.00;;;5.20;;
48945;SDS011;34999;50.940;3.998;2022-08-23T07:44:52;14.23;;;5.13;;
48945;SDS011;34999;50.940;3.998;2022-08-23T07:47:22;8.33;;;4.70;;
48945;SDS011;34999;50.940;3.998;2022-08-23T07:49:52;11.47;;;4.30;;
48945;SDS011;34999;50.940;3.998;2022-08-23T07:52:20;8.60;;;5.10;;
48945;SDS011;34999;50.940;3.998;2022-08-23T07:54:49;15.53;;;5.10;;
48945;SDS011;34999;50.940;3.998;2022-08-23T07:57:20;11.80;;;5.37;;
48945;SDS011;34999;50.940;3.998;2022-08-23T07:59:50;8.83;;;4.70;;
48945;SDS011;34999;50.940;3.998;2022-08-23T08:02:22;13.03;;;4.83;;
48945;SDS011;34999;50.940;3.998;2022-08-23T08:04:50;8.50;;;5.23;;
48945;SDS011;34999;50.940;3.998;2022-08-23T08:07:18;12.07;;;4.80;;
48945;SDS011;34999;50.940;3.998;2022-08-23T08:09:47;10.70;;;4.80;;
48945;SDS011;34999;50.940;3.998;2022-08-23T08:12:16;8.97;;;5.10;;
48945;SDS011;34999;50.940;3.998;2022-08-23T08:14:44;9.90;;;5.70;;
48945;SDS011;34999;50.940;3.998;2022-08-23T08:17:15;17.73;;;5.97;;
48945;SDS011;34999;50.940;3.998;2022-08-23T08:19:47;10.17;;;6.17;;
48945;SDS011;34999;50.940;3.998;2022-08-23T08:22:16;10.80;;;6.10;;
48945;SDS011;34999;50.940;3.998;2022-08-23T08:24:44;8.77;;;5.53;;
48945;SDS011;34999;50.940;3.998;2022-08-23T08:27:12;11.87;;;6.07;;
48945;SDS011;34999;50.940;3.998;2022-08-23T08:29:41;9.37;;;6.30;;
48945;SDS011;34999;50.940;3.998;2022-08-23T08:32:09;9.30;;;5.73;;
48945;SDS011;34999;50.940;3.998;2022-08-23T08:34:41;11.20;;;5.73;;
48945;SDS011;34999;50.940;3.998;2022-08-23T08:37:09;12.53;;;6.33;;
48945;SDS011;34999;50.940;3.998;2022-08-23T08:39:40;9.53;;;5.67;;
48945;SDS011;34999;50.940;3.998;2022-08-23T08:42:18;14.83;;;5.50;;
48945;SDS011;34999;50.940;3.998;2022-08-23T08:44:57;8.40;;;4.10;;
48945;SDS011;34999;50.940;3.998;2022-08-23T08:47:32;8.87;;;3.90;;
48945;SDS011;34999;50.940;3.998;2022-08-23T08:50:08;7.13;;;4.50;;
48945;SDS011;34999;50.940;3.998;2022-08-23T08:52:42;4.97;;;3.50;;
48945;SDS011;34999;50.940;3.998;2022-08-23T08:55:16;6.40;;;3.40;;
48945;SDS011;34999;50.940;3.998;2022-08-23T08:57:48;4.60;;;3.50;;
48945;SDS011;34999;50.940;3.998;2022-08-23T09:00:18;8.33;;;3.80;;
48945;SDS011;34999;50.940;3.998;2022-08-23T09:02:49;4.40;;;2.97;;
48945;SDS011;34999;50.940;3.998;2022-08-23T09:05:21;9.97;;;3.70;;
48945;SDS011;34999;50.940;3.998;2022-08-23T09:07:56;5.33;;;3.50;;
48945;SDS011;34999;50.940;3.998;2022-08-23T09:13:38;4.47;;;3.00;;
48945;SDS011;34999;50.940;3.998;2022-08-23T09:16:33;4.73;;;3.00;;
48945;SDS011;34999;50.940;3.998;2022-08-23T09:19:11;6.60;;;3.30;;
48945;SDS011;34999;50.940;3.998;2022-08-23T09:21:44;4.05;;;2.80;;
48945;SDS011;34999;50.940;3.998;2022-08-23T09:24:15;4.13;;;2.42;;
48945;SDS011;34999;50.940;3.998;2022-08-23T09:29:35;3.95;;;1.80;;
48945;SDS011;34999;50.940;3.998;2022-08-23T09:32:06;2.95;;;1.55;;
48945;SDS011;34999;50.940;3.998;2022-08-23T09:35:04;1.52;;;1.42;;
48945;SDS011;34999;50.940;3.998;2022-08-23T09:40:32;6.82;;;1.40;;
48945;SDS011;34999;50.940;3.998;2022-08-23T09:43:09;1.60;;;1.60;;
48945;SDS011;34999;50.940;3.998;2022-08-23T09:45:40;1.70;;;1.60;;
48945;SDS011;34999;50.940;3.998;2022-08-23T09:48:30;2.13;;;1.58;;
48945;SDS011;34999;50.940;3.998;2022-08-23T09:51:05;2.22;;;1.48;;
48945;SDS011;34999;50.940;3.998;2022-08-23T09:53:44;1.60;;;1.50;;
48945;SDS011;34999;50.940;3.998;2022-08-23T09:56:17;2.03;;;1.40;;
48945;SDS011;34999;50.940;3.998;2022-08-23T09:58:51;2.05;;;1.42;;
48945;SDS011;34999;50.940;3.998;2022-08-23T10:01:21;2.25;;;1.63;;
48945;SDS011;34999;50.940;3.998;2022-08-23T10:04:30;1.73;;;1.52;;
48945;SDS011;34999;50.940;3.998;2022-08-23T10:07:19;2.97;;;1.50;;
48945;SDS011;34999;50.940;3.998;2022-08-23T10:09:55;3.53;;;1.65;;
48945;SDS011;34999;50.940;3.998;2022-08-23T10:12:44;1.70;;;1.60;;
48945;SDS011;34999;50.940;3.998;2022-08-23T10:15:14;1.80;;;1.70;;
48945;SDS011;34999;50.940;3.998;2022-08-23T10:17:47;3.97;;;1.83;;
48945;SDS011;34999;50.940;3.998;2022-08-23T10:20:26;3.63;;;1.58;;
48945;SDS011;34999;50.940;3.998;2022-08-23T10:23:05;3.05;;;1.70;;
48945;SDS011;34999;50.940;3.998;2022-08-23T10:25:49;1.73;;;1.63;;
48945;SDS011;34999;50.940;3.998;2022-08-23T10:28:24;1.25;;;1.23;;
48945;SDS011;34999;50.940;3.998;2022-08-23T10:31:20;1.40;;;1.40;;
48945;SDS011;34999;50.940;3.998;2022-08-23T10:34:05;2.95;;;1.50;;
48945;SDS011;34999;50.940;3.998;2022-08-23T10:36:49;1.17;;;1.17;;
48945;SDS011;34999;50.940;3.998;2022-08-23T10:39:28;0.98;;;0.98;;
48945;SDS011;34999;50.940;3.998;2022-08-23T10:41:59;2.53;;;1.50;;
48945;SDS011;34999;50.940;3.998;2022-08-23T10:44:32;1.92;;;1.40;;
48945;SDS011;34999;50.940;3.998;2022-08-23T10:47:10;1.42;;;1.38;;
48945;SDS011;34999;50.940;3.998;2022-08-23T10:49:51;1.35;;;1.35;;
48945;SDS011;34999;50.940;3.998;2022-08-23T10:52:22;2.85;;;1.10;;
48945;SDS011;34999;50.940;3.998;2022-08-23T10:58:38;1.85;;;1.60;;
48945;SDS011;34999;50.940;3.998;2022-08-23T11:01:13;1.30;;;1.30;;
48945;SDS011;34999;50.940;3.998;2022-08-23T11:03:46;1.73;;;1.42;;
48945;SDS011;34999;50.940;3.998;2022-08-23T11:12:22;1.10;;;1.10;;
48945;SDS011;34999;50.940;3.998;2022-08-23T11:15:01;2.25;;;1.60;;
48945;SDS011;34999;50.940;3.998;2022-08-23T11:17:54;1.45;;;1.35;;
48945;SDS011;34999;50.940;3.998;2022-08-23T11:29:25;3.63;;;1.60;;
48945;SDS011;34999;50.940;3.998;2022-08-23T11:31:58;1.90;;;1.90;;
48945;SDS011;34999;50.940;3.998;2022-08-23T11:34:33;2.00;;;1.83;;
48945;SDS011;34999;50.940;3.998;2022-08-23T11:37:29;2.10;;;2.00;;
48945;SDS011;34999;50.940;3.998;2022-08-23T11:40:13;1.90;;;1.80;;
48945;SDS011;34999;50.940;3.998;2022-08-23T11:43:02;2.03;;;1.50;;
48945;SDS011;34999;50.940;3.998;2022-08-23T11:45:40;1.30;;;1.30;;
48945;SDS011;34999;50.940;3.998;2022-08-23T11:48:14;1.33;;;1.30;;
48945;SDS011;34999;50.940;3.998;2022-08-23T11:50:57;1.55;;;1.50;;
48945;SDS011;34999;50.940;3.998;2022-08-23T11:53:48;1.70;;;1.70;;
48945;SDS011;34999;50.940;3.998;2022-08-23T11:59:36;2.35;;;1.73;;
48945;SDS011;34999;50.940;3.998;2022-08-23T12:02:31;2.17;;;1.80;;
48945;SDS011;34999;50.940;3.998;2022-08-23T12:05:20;1.85;;;1.55;;
48945;SDS011;34999;50.940;3.998;2022-08-23T12:11:00;5.28;;;1.30;;
48945;SDS011;34999;50.940;3.998;2022-08-23T12:13:44;3.60;;;1.20;;
48945;SDS011;34999;50.940;3.998;2022-08-23T12:16:32;2.92;;;1.10;;
48945;SDS011;34999;50.940;3.998;2022-08-23T12:19:05;2.75;;;1.10;;
48945;SDS011;34999;50.940;3.998;2022-08-23T12:21:42;1.27;;;1.27;;
48945;SDS011;34999;50.940;3.998;2022-08-23T12:27:09;2.08;;;1.60;;
48945;SDS011;34999;50.940;3.998;2022-08-23T12:29:52;2.67;;;1.70;;
48945;SDS011;34999;50.940;3.998;2022-08-23T12:32:30;1.45;;;1.45;;
48945;SDS011;34999;50.940;3.998;2022-08-23T12:35:15;1.52;;;1.52;;
48945;SDS011;34999;50.940;3.998;2022-08-23T12:37:58;1.60;;;1.50;;
48945;SDS011;34999;50.940;3.998;2022-08-23T12:40:32;2.70;;;1.60;;
48945;SDS011;34999;50.940;3.998;2022-08-23T12:43:09;1.63;;;1.60;;
48945;SDS011;34999;50.940;3.998;2022-08-23T12:45:48;1.50;;;1.50;;
48945;SDS011;34999;50.940;3.998;2022-08-23T12:48:21;1.80;;;1.70;;
48945;SDS011;34999;50.940;3.998;2022-08-23T12:50:53;1.67;;;1.67;;
48945;SDS011;34999;50.940;3.998;2022-08-23T12:53:29;1.42;;;1.42;;
48945;SDS011;34999;50.940;3.998;2022-08-23T12:55:59;2.58;;;1.50;;
48945;SDS011;34999;50.940;3.998;2022-08-23T12:58:32;5.05;;;1.50;;
48945;SDS011;34999;50.940;3.998;2022-08-23T13:01:04;1.50;;;1.50;;
48945;SDS011;34999;50.940;3.998;2022-08-23T13:03:35;1.80;;;1.30;;
48945;SDS011;34999;50.940;3.998;2022-08-23T13:06:12;1.33;;;1.27;;
48945;SDS011;34999;50.940;3.998;2022-08-23T13:08:45;1.10;;;1.10;;
48945;SDS011;34999;50.940;3.998;2022-08-23T13:11:18;1.40;;;1.30;;
48945;SDS011;34999;50.940;3.998;2022-08-23T13:13:49;1.30;;;1.30;;
48945;SDS011;34999;50.940;3.998;2022-08-23T13:16:25;1.55;;;1.45;;
48945;SDS011;34999;50.940;3.998;2022-08-23T13:19:10;1.58;;;1.40;;
48945;SDS011;34999;50.940;3.998;2022-08-23T13:21:43;1.23;;;1.23;;
48945;SDS011;34999;50.940;3.998;2022-08-23T13:24:26;1.30;;;1.30;;
48945;SDS011;34999;50.940;3.998;2022-08-23T13:27:19;1.33;;;1.30;;
48945;SDS011;34999;50.940;3.998;2022-08-23T13:33:18;1.55;;;1.40;;
48945;SDS011;34999;50.940;3.998;2022-08-23T13:35:47;2.15;;;1.60;;
48945;SDS011;34999;50.940;3.998;2022-08-23T13:38:19;1.58;;;1.48;;
48945;SDS011;34999;50.940;3.998;2022-08-23T13:40:55;1.40;;;1.40;;
48945;SDS011;34999;50.940;3.998;2022-08-23T13:43:28;1.05;;;1.05;;
48945;SDS011;34999;50.940;3.998;2022-08-23T13:46:00;1.50;;;1.40;;
48945;SDS011;34999;50.940;3.998;2022-08-23T13:48:42;1.05;;;1.00;;
48945;SDS011;34999;50.940;3.998;2022-08-23T13:51:23;1.10;;;1.10;;
48945;SDS011;34999;50.940;3.998;2022-08-23T13:53:55;1.85;;;1.40;;
48945;SDS011;34999;50.940;3.998;2022-08-23T13:56:31;1.30;;;1.30;;
48945;SDS011;34999;50.940;3.998;2022-08-23T13:59:03;1.13;;;1.13;;
48945;SDS011;34999;50.940;3.998;2022-08-23T14:01:43;1.48;;;1.48;;
48945;SDS011;34999;50.940;3.998;2022-08-23T14:04:12;1.60;;;1.60;;
48945;SDS011;34999;50.940;3.998;2022-08-23T14:06:41;1.40;;;1.40;;
48945;SDS011;34999;50.940;3.998;2022-08-23T14:09:14;1.63;;;1.52;;
48945;SDS011;34999;50.940;3.998;2022-08-23T14:11:44;5.90;;;1.30;;
48945;SDS011;34999;50.940;3.998;2022-08-23T14:14:19;2.50;;;1.45;;
48945;SDS011;34999;50.940;3.998;2022-08-23T14:16:47;1.58;;;1.50;;
48945;SDS011;34999;50.940;3.998;2022-08-23T14:19:16;1.30;;;1.30;;
48945;SDS011;34999;50.940;3.998;2022-08-23T14:22:04;1.45;;;1.38;;
48945;SDS011;34999;50.940;3.998;2022-08-23T14:24:32;1.73;;;1.30;;
48945;SDS011;34999;50.940;3.998;2022-08-23T14:27:03;1.42;;;1.42;;
48945;SDS011;34999;50.940;3.998;2022-08-23T14:29:32;1.60;;;1.50;;
48945;SDS011;34999;50.940;3.998;2022-08-23T14:32:01;1.40;;;1.40;;
48945;SDS011;34999;50.940;3.998;2022-08-23T14:34:30;1.50;;;1.50;;
48945;SDS011;34999;50.940;3.998;2022-08-23T14:36:58;1.42;;;1.42;;
48945;SDS011;34999;50.940;3.998;2022-08-23T14:39:47;1.70;;;1.70;;
48945;SDS011;34999;50.940;3.998;2022-08-23T14:42:18;1.63;;;1.63;;
48945;SDS011;34999;50.940;3.998;2022-08-23T14:44:51;2.67;;;1.40;;
48945;SDS011;34999;50.940;3.998;2022-08-23T14:47:19;2.17;;;1.70;;
48945;SDS011;34999;50.940;3.998;2022-08-23T14:49:47;1.50;;;1.50;;
48945;SDS011;34999;50.940;3.998;2022-08-23T14:52:19;1.60;;;1.60;;
48945;SDS011;34999;50.940;3.998;2022-08-23T14:54:48;1.60;;;1.60;;
48945;SDS011;34999;50.940;3.998;2022-08-23T14:57:18;1.60;;;1.60;;
48945;SDS011;34999;50.940;3.998;2022-08-23T14:59:47;1.60;;;1.60;;
48945;SDS011;34999;50.940;3.998;2022-08-23T15:02:18;1.73;;;1.63;;
48945;SDS011;34999;50.940;3.998;2022-08-23T15:04:49;3.03;;;1.55;;
48945;SDS011;34999;50.940;3.998;2022-08-23T15:07:18;2.83;;;1.67;;
48945;SDS011;34999;50.940;3.998;2022-08-23T15:09:46;1.52;;;1.42;;
48945;SDS011;34999;50.940;3.998;2022-08-23T15:12:21;1.70;;;1.60;;
48945;SDS011;34999;50.940;3.998;2022-08-23T15:15:11;1.33;;;1.33;;
48945;SDS011;34999;50.940;3.998;2022-08-23T15:17:44;1.60;;;1.50;;
48945;SDS011;34999;50.940;3.998;2022-08-23T15:20:17;1.58;;;1.48;;
48945;SDS011;34999;50.940;3.998;2022-08-23T15:22:46;1.67;;;1.67;;
48945;SDS011;34999;50.940;3.998;2022-08-23T15:25:31;1.50;;;1.48;;
48945;SDS011;34999;50.940;3.998;2022-08-23T15:28:03;2.40;;;1.55;;
48945;SDS011;34999;50.940;3.998;2022-08-23T15:30:38;1.40;;;1.40;;
48945;SDS011;34999;50.940;3.998;2022-08-23T15:33:07;1.42;;;1.42;;
48945;SDS011;34999;50.940;3.998;2022-08-23T15:35:38;1.67;;;1.45;;
48945;SDS011;34999;50.940;3.998;2022-08-23T15:38:11;1.40;;;1.40;;
48945;SDS011;34999;50.940;3.998;2022-08-23T15:40:43;1.60;;;1.60;;
48945;SDS011;34999;50.940;3.998;2022-08-23T15:43:13;1.30;;;1.30;;
48945;SDS011;34999;50.940;3.998;2022-08-23T15:45:41;1.42;;;1.42;;
48945;SDS011;34999;50.940;3.998;2022-08-23T15:48:11;1.20;;;1.20;;
48945;SDS011;34999;50.940;3.998;2022-08-23T15:50:46;2.35;;;1.50;;
48945;SDS011;34999;50.940;3.998;2022-08-23T15:53:15;1.58;;;1.58;;
48945;SDS011;34999;50.940;3.998;2022-08-23T15:55:45;1.38;;;1.27;;
48945;SDS011;34999;50.940;3.998;2022-08-23T15:58:16;1.33;;;1.30;;
48945;SDS011;34999;50.940;3.998;2022-08-23T16:00:48;1.42;;;1.42;;
48945;SDS011;34999;50.940;3.998;2022-08-23T16:03:31;1.92;;;1.80;;
48945;SDS011;34999;50.940;3.998;2022-08-23T16:05:59;1.85;;;1.80;;